Terminal Aerodrome Forecast
Issued by NWS Northern Indiana

Home | Current Version | Previous Version | Text Only | Print | Product List | Glossary Off
Versions: 1 2 3 4 5 6 7 8 9 10 11 12 13 14

000
FTUS43 KIWX 212320
TAFFWA
TAF
KFWA 212320Z 2200/2224 26011KT P6SM SCT030 BKN045
     FM220700 26007KT P6SM SCT250
     FM221700 23011G19KT P6SM FEW050 BKN250=

USA.gov is the U.S. government's official web portal to all federal, state and local government web resources and services.